Terminal Aerodrome Forecast
Issued by NWS

Home | Current Version | Previous Version | Text Only | Print | Product List | Glossary On
Versions: 1 2 3 4 5 6 7 8 9 10 11 12 13 14 15 16 17 18
000
FTUS43 KIWX 232000 AAA
TAFSBN
TAF AMD
KSBN 232000Z 2320/2418 08010KT 2SM -SN OVC012
      TEMPO 2320/2322 1SM -SN BKN009
     FM232200 09010KT P6SM BKN015
     FM240400 09006KT P6SM BKN040
     FM240800 09007KT P6SM FEW040 SCT250=

USA.gov is the U.S. government's official web portal to all federal, state and local government web resources and services.